Time;durP1;ratioP1;P1;durP2;ratioP2;P2;SDS_P1;SDS_P2;PMS_P1;PMS_P2;Temp;Humidity;BMP_temperature;BMP_pressure;BME280_temperature;BME280_humidity;BME280_pressure;Samples;Min_cycle;Max_cycle;Signal;HPM_P1;HPM_P2
2023/01/20 00:01:33;;;;;;;19.23;9.93;;;0.90;99.90;;;;;;5090103;28;20103;-61
2023/01/20 00:03:59;;;;;;;16.92;8.98;;;0.90;99.90;;;;;;5112097;28;20038;-61
2023/01/20 00:06:28;;;;;;;18.33;9.40;;;0.90;99.90;;;;;;5083592;27;20028;-61
2023/01/20 00:08:56;;;;;;;19.17;10.68;;;0.90;99.90;;;;;;5112371;28;20491;-61
2023/01/20 00:11:22;;;;;;;20.38;11.15;;;0.90;99.90;;;;;;5090613;28;20032;-61
2023/01/20 00:13:53;;;;;;;20.70;10.65;;;1.00;99.90;;;;;;5112014;28;20035;-61
2023/01/20 00:16:19;;;;;;;22.77;11.07;;;1.00;99.90;;;;;;5088210;28;20024;-56
2023/01/20 00:18:44;;;;;;;19.70;11.23;;;1.10;99.90;;;;;;5111783;28;20072;-58
2023/01/20 00:21:11;;;;;;;24.25;11.60;;;1.10;99.90;;;;;;5090838;28;20031;-55
2023/01/20 00:23:38;;;;;;;17.83;9.93;;;1.10;99.90;;;;;;5111950;28;20495;-56
2023/01/20 00:26:10;;;;;;;17.67;9.50;;;1.10;99.90;;;;;;5090556;28;20390;-53
2023/01/20 00:28:35;;;;;;;17.25;9.93;;;1.20;99.90;;;;;;5111936;28;20328;-55
2023/01/20 00:31:22;;;;;;;18.50;10.02;;;1.10;99.90;;;;;;5100790;28;20070;-53
2023/01/20 00:33:49;;;;;;;19.77;10.65;;;1.20;99.90;;;;;;5071686;28;20028;-57
2023/01/20 00:36:16;;;;;;;18.80;9.98;;;1.20;99.90;;;;;;5091758;28;20032;-55
2023/01/20 00:38:42;;;;;;;23.25;11.13;;;1.20;99.90;;;;;;5111468;28;20153;-57
2023/01/20 00:41:08;;;;;;;21.98;11.13;;;1.20;99.90;;;;;;5090261;27;20119;-58
2023/01/20 00:43:34;;;;;;;21.85;10.48;;;1.20;99.90;;;;;;5111361;28;20085;-55
2023/01/20 00:46:00;;;;;;;21.90;11.57;;;1.20;99.90;;;;;;5090025;28;20057;-55
2023/01/20 00:48:25;;;;;;;22.63;11.70;;;1.30;99.90;;;;;;5111042;28;20122;-55
2023/01/20 00:50:51;;;;;;;20.98;11.57;;;1.30;99.90;;;;;;5090092;28;20121;-56
2023/01/20 00:53:17;;;;;;;19.10;10.32;;;1.30;99.90;;;;;;5111004;28;20491;-57
2023/01/20 00:55:42;;;;;;;19.55;10.13;;;1.30;99.90;;;;;;5089657;28;20090;-52
2023/01/20 00:58:08;;;;;;;20.83;11.50;;;1.30;99.90;;;;;;5111154;28;20443;-53
2023/01/20 01:00:33;;;;;;;24.63;11.90;;;1.30;99.90;;;;;;5089964;28;20032;-56
2023/01/20 01:02:59;;;;;;;18.70;10.50;;;1.30;99.90;;;;;;5110615;28;20556;-54
2023/01/20 01:05:24;;;;;;;20.98;11.13;;;1.30;99.90;;;;;;5096394;28;20028;-56
2023/01/20 01:07:50;;;;;;;20.65;10.73;;;1.30;99.90;;;;;;5091470;28;20036;-56
2023/01/20 01:10:16;;;;;;;23.95;11.27;;;1.30;99.90;;;;;;5108781;28;20061;-55
2023/01/20 01:12:41;;;;;;;22.08;11.45;;;1.40;99.90;;;;;;5091281;28;20086;-50
2023/01/20 01:15:07;;;;;;;19.25;10.88;;;1.40;99.90;;;;;;5108796;28;20471;-54
2023/01/20 01:17:33;;;;;;;24.30;10.98;;;1.40;99.90;;;;;;5091417;28;20028;-54
2023/01/20 01:19:58;;;;;;;23.65;11.35;;;1.40;99.90;;;;;;5108398;28;20107;-55
2023/01/20 01:22:24;;;;;;;18.10;10.27;;;1.40;99.90;;;;;;5110939;28;20032;-54
2023/01/20 01:24:49;;;;;;;17.17;9.90;;;1.50;99.90;;;;;;5094603;28;20028;-57
2023/01/20 01:27:15;;;;;;;20.52;11.10;;;1.40;99.90;;;;;;5107716;28;20016;-56
2023/01/20 01:29:40;;;;;;;18.67;10.57;;;1.40;99.90;;;;;;5110435;28;20020;-56
2023/01/20 01:32:06;;;;;;;21.00;11.80;;;1.50;99.90;;;;;;5090670;28;20040;-54
2023/01/20 01:34:32;;;;;;;20.00;11.07;;;1.50;99.90;;;;;;5110947;28;20024;-56
2023/01/20 01:36:58;;;;;;;21.27;11.40;;;1.40;99.90;;;;;;5090369;28;20240;-56
2023/01/20 01:39:23;;;;;;;16.60;8.90;;;1.50;99.90;;;;;;5110630;28;20058;-56
2023/01/20 01:41:49;;;;;;;17.75;9.45;;;1.50;99.90;;;;;;5089214;28;20479;-57
2023/01/20 01:44:15;;;;;;;20.77;10.77;;;1.50;99.90;;;;;;5110758;28;20032;-57
2023/01/20 01:46:41;;;;;;;21.90;10.30;;;1.50;99.90;;;;;;5090749;28;20043;-52
2023/01/20 01:49:19;;;;;;;23.20;11.20;;;1.50;99.90;;;;;;5088284;28;20044;-54
2023/01/20 01:52:00;;;;;;;20.48;9.82;;;1.60;99.90;;;;;;5069930;28;20086;-52
2023/01/20 01:54:34;;;;;;;18.10;10.63;;;1.60;99.90;;;;;;5069254;28;20028;-56
2023/01/20 01:57:00;;;;;;;22.35;10.93;;;1.60;99.90;;;;;;5070845;28;20381;-53
2023/01/20 01:59:25;;;;;;;23.60;10.30;;;1.70;99.90;;;;;;5109548;28;20031;-54
2023/01/20 02:01:52;;;;;;;19.25;9.80;;;1.70;99.90;;;;;;5088569;28;20043;-50
2023/01/20 02:04:23;;;;;;;24.40;11.23;;;1.70;99.90;;;;;;5110076;28;20527;-55
2023/01/20 02:06:55;;;;;;;16.50;8.80;;;1.70;99.90;;;;;;5061664;28;20055;-55
2023/01/20 02:09:21;;;;;;;17.77;10.18;;;1.70;99.90;;;;;;5109875;28;20065;-54
2023/01/20 02:11:51;;;;;;;17.38;9.60;;;1.80;99.90;;;;;;5089748;28;20028;-56
2023/01/20 02:14:22;;;;;;;18.67;9.40;;;1.80;99.90;;;;;;5069545;28;20408;-56
2023/01/20 02:17:14;;;;;;;17.48;9.32;;;1.80;99.90;;;;;;5067730;28;20040;-51
2023/01/20 02:20:08;;;;;;;15.95;8.80;;;1.80;99.90;;;;;;5109854;27;20364;-56
2023/01/20 02:22:42;;;;;;;20.75;10.23;;;1.80;99.90;;;;;;5094661;28;20023;-54
2023/01/20 02:25:39;;;;;;;15.23;8.80;;;1.80;99.90;;;;;;5109989;28;20371;-54
2023/01/20 02:28:19;;;;;;;;;;;1.80;99.90;;;;;;5089777;28;20273;-51
2023/01/20 02:30:54;;;;;;;17.58;8.13;;;1.70;99.90;;;;;;5085464;28;20009;-56
2023/01/20 02:33:32;;;;;;;16.33;8.50;;;1.80;99.90;;;;;;5080291;28;20335;-54
2023/01/20 02:36:04;;;;;;;18.65;9.70;;;1.80;99.90;;;;;;5109142;28;20122;-55
2023/01/20 02:38:47;;;;;;;18.25;8.10;;;1.80;99.90;;;;;;5081812;28;20062;-54
2023/01/20 02:41:20;;;;;;;21.20;8.68;;;1.80;99.90;;;;;;5089233;28;20388;-56
2023/01/20 02:44:07;;;;;;;19.73;8.10;;;1.80;99.90;;;;;;5083853;28;20118;-56
2023/01/20 02:46:38;;;;;;;17.05;7.80;;;1.80;99.90;;;;;;5068931;28;20060;-53
2023/01/20 02:49:21;;;;;;;19.23;7.93;;;1.80;99.90;;;;;;5087947;28;20093;-55
2023/01/20 02:51:56;;;;;;;17.23;7.70;;;1.80;99.90;;;;;;5068773;28;20029;-62
2023/01/20 02:54:25;;;;;;;23.77;8.18;;;1.80;99.90;;;;;;5068665;28;20111;-61
2023/01/20 02:56:52;;;;;;;22.13;8.82;;;1.80;99.90;;;;;;5107190;28;20073;-62
2023/01/20 02:59:23;;;;;;;18.88;9.15;;;1.80;99.90;;;;;;5109535;28;20032;-62
2023/01/20 03:02:03;;;;;;;18.85;8.88;;;1.80;99.90;;;;;;5070916;28;20036;-61
2023/01/20 03:04:34;;;;;;;20.50;9.32;;;1.80;99.90;;;;;;5088919;28;20529;-61
2023/01/20 03:07:02;;;;;;;14.30;7.82;;;1.80;99.90;;;;;;5099278;28;20459;-61
2023/01/20 03:09:40;;;;;;;19.73;9.05;;;1.80;99.90;;;;;;5089043;28;20027;-61
2023/01/20 03:12:15;;;;;;;18.05;8.48;;;1.90;99.90;;;;;;5073169;28;20031;-61
2023/01/20 03:14:40;;;;;;;18.35;8.23;;;1.90;99.90;;;;;;5088822;28;20043;-61
2023/01/20 03:17:06;;;;;;;18.67;8.82;;;1.90;99.90;;;;;;5100446;28;20032;-61
2023/01/20 03:19:32;;;;;;;20.58;8.23;;;1.90;99.90;;;;;;5089096;28;20369;-62
2023/01/20 03:21:57;;;;;;;12.63;7.13;;;1.90;99.90;;;;;;5101485;28;20158;-61
2023/01/20 03:24:24;;;;;;;18.67;8.48;;;1.90;99.90;;;;;;5088849;28;20035;-61
2023/01/20 03:26:50;;;;;;;17.70;8.23;;;1.90;99.90;;;;;;5102791;28;20034;-61
2023/01/20 03:29:17;;;;;;;18.58;8.63;;;1.90;99.90;;;;;;5088863;28;20032;-61
2023/01/20 03:31:49;;;;;;;18.90;8.00;;;1.90;99.90;;;;;;5103716;28;20051;-60
2023/01/20 03:34:18;;;;;;;19.85;9.13;;;1.90;99.90;;;;;;5088994;28;20032;-61
2023/01/20 03:36:44;;;;;;;18.52;7.78;;;1.90;99.90;;;;;;5107045;28;20395;-61
2023/01/20 03:39:10;;;;;;;21.33;9.45;;;1.90;99.90;;;;;;5093004;28;20161;-61
2023/01/20 03:41:39;;;;;;;14.90;8.23;;;1.90;99.90;;;;;;5108622;28;20487;-61
2023/01/20 03:44:19;;;;;;;17.67;7.50;;;1.80;99.90;;;;;;5092889;28;20024;-61
2023/01/20 03:46:53;;;;;;;21.38;7.65;;;1.80;99.90;;;;;;5107587;28;20028;-61
2023/01/20 03:49:29;;;;;;;16.05;7.97;;;1.80;99.90;;;;;;5092514;28;20117;-61
2023/01/20 03:52:17;;;;;;;18.85;7.82;;;1.80;99.90;;;;;;5075261;28;20609;-61
2023/01/20 03:54:59;;;;;;;20.20;8.90;;;1.80;99.90;;;;;;5061029;28;20042;-61
2023/01/20 03:57:36;;;;;;;17.58;8.27;;;1.80;99.90;;;;;;5079365;28;20020;-61
2023/01/20 04:00:04;;;;;;;16.65;7.47;;;1.70;99.90;;;;;;5072196;28;20523;-61
2023/01/20 04:02:32;;;;;;;17.77;7.20;;;1.70;99.90;;;;;;5100787;28;20106;-61
2023/01/20 04:05:00;;;;;;;20.40;9.05;;;1.70;99.90;;;;;;5103770;28;20116;-61
2023/01/20 04:07:26;;;;;;;18.98;7.88;;;1.70;99.90;;;;;;5090511;28;20047;-61
2023/01/20 04:09:57;;;;;;;22.35;8.98;;;1.70;99.90;;;;;;5112088;28;20031;-61
2023/01/20 04:12:23;;;;;;;20.30;8.20;;;1.70;99.90;;;;;;5078726;28;20044;-61
2023/01/20 04:14:48;;;;;;;18.10;7.93;;;1.70;99.90;;;;;;5111954;28;20044;-60
2023/01/20 04:17:14;;;;;;;18.63;8.80;;;1.70;99.90;;;;;;5090875;28;20024;-61
2023/01/20 04:19:39;;;;;;;19.63;9.30;;;1.70;99.90;;;;;;5092166;28;20028;-61
2023/01/20 04:22:13;;;;;;;24.45;9.25;;;1.70;99.90;;;;;;5103722;28;20391;-61
2023/01/20 04:24:56;;;;;;;21.10;8.18;;;1.70;99.90;;;;;;5092006;28;20020;-60
2023/01/20 04:27:22;;;;;;;21.30;8.77;;;1.70;99.90;;;;;;5078183;28;20063;-63
2023/01/20 04:29:47;;;;;;;21.58;9.25;;;1.70;99.90;;;;;;5111184;28;20415;-61
2023/01/20 04:32:13;;;;;;;24.00;8.25;;;1.70;99.90;;;;;;5088923;28;20492;-61
2023/01/20 04:34:38;;;;;;;16.10;8.15;;;1.80;99.90;;;;;;5090666;28;20028;-60
2023/01/20 04:37:04;;;;;;;18.05;8.73;;;1.80;99.90;;;;;;5108377;28;20036;-61
2023/01/20 04:39:29;;;;;;;20.15;7.78;;;1.80;99.90;;;;;;5091107;28;20525;-60
2023/01/20 04:41:55;;;;;;;20.10;8.30;;;1.80;99.90;;;;;;5099177;28;20028;-61
2023/01/20 04:44:21;;;;;;;21.02;8.73;;;1.80;99.90;;;;;;5110214;28;20032;-61
2023/01/20 04:46:46;;;;;;;23.63;8.77;;;1.80;99.90;;;;;;5088874;28;20027;-61
2023/01/20 04:49:12;;;;;;;17.33;7.93;;;1.90;99.90;;;;;;5110241;28;20387;-61
2023/01/20 04:51:38;;;;;;;16.10;8.05;;;1.80;99.90;;;;;;5088851;28;20024;-61
2023/01/20 04:54:04;;;;;;;18.67;8.60;;;1.80;99.90;;;;;;5083609;28;20039;-61
2023/01/20 04:56:29;;;;;;;21.02;9.43;;;1.80;99.90;;;;;;5090406;28;20028;-61
2023/01/20 04:58:55;;;;;;;22.33;9.48;;;1.80;99.90;;;;;;5099114;28;20032;-61
2023/01/20 05:01:20;;;;;;;20.33;8.48;;;1.90;99.90;;;;;;5109974;28;20055;-62
2023/01/20 05:03:46;;;;;;;21.23;9.23;;;1.90;99.90;;;;;;5088983;28;20488;-61
2023/01/20 05:06:12;;;;;;;19.45;8.50;;;1.90;99.90;;;;;;5109779;28;20032;-57
2023/01/20 05:08:37;;;;;;;23.02;10.88;;;1.90;99.90;;;;;;5088889;28;20709;-56
2023/01/20 05:11:03;;;;;;;22.52;9.45;;;1.90;99.90;;;;;;5089898;28;20035;-56
2023/01/20 05:13:29;;;;;;;24.20;9.75;;;1.90;99.90;;;;;;5102518;28;20541;-57
2023/01/20 05:15:54;;;;;;;19.92;8.88;;;1.90;99.90;;;;;;5090265;28;20036;-61
2023/01/20 05:18:20;;;;;;;20.70;9.57;;;1.90;99.90;;;;;;5103527;28;20028;-61
2023/01/20 05:20:47;;;;;;;25.45;10.73;;;1.90;99.90;;;;;;5090246;28;20030;-61
2023/01/20 05:23:12;;;;;;;22.42;9.45;;;1.90;99.90;;;;;;5091283;28;20039;-61
2023/01/20 05:25:38;;;;;;;22.88;9.52;;;2.00;99.90;;;;;;5089899;28;20110;-62
2023/01/20 05:28:04;;;;;;;17.25;9.25;;;1.90;99.90;;;;;;5105695;28;20527;-61
2023/01/20 05:30:30;;;;;;;18.35;8.77;;;2.00;99.90;;;;;;4556691;28;15039014;-61
2023/01/20 05:32:55;;;;;;;30.30;11.10;;;2.00;99.90;;;;;;5093287;28;20036;-61
2023/01/20 05:35:21;;;;;;;18.75;9.07;;;2.00;99.90;;;;;;5090847;28;20024;-61
2023/01/20 05:37:46;;;;;;;20.17;10.23;;;2.00;99.90;;;;;;5110415;28;20031;-62
2023/01/20 05:40:12;;;;;;;24.67;9.82;;;2.00;99.90;;;;;;5089294;28;20043;-62
2023/01/20 05:42:38;;;;;;;20.35;8.88;;;2.00;99.90;;;;;;5110202;28;20526;-63
2023/01/20 05:45:04;;;;;;;24.05;11.20;;;2.00;99.90;;;;;;5089285;28;20028;-62
2023/01/20 05:47:29;;;;;;;20.17;9.27;;;2.00;99.90;;;;;;5090074;28;20519;-62
2023/01/20 05:49:55;;;;;;;17.15;8.93;;;1.90;99.90;;;;;;5109922;28;20024;-62
2023/01/20 05:52:20;;;;;;;24.08;10.38;;;1.90;99.90;;;;;;5088013;28;20165;-62
2023/01/20 05:54:46;;;;;;;19.05;9.38;;;1.90;99.90;;;;;;5109965;28;20085;-61
2023/01/20 05:57:16;;;;;;;18.30;9.30;;;2.00;99.90;;;;;;5089239;28;20047;-62
2023/01/20 05:59:43;;;;;;;23.38;10.40;;;2.00;99.90;;;;;;5069695;28;20135;-62
2023/01/20 06:02:10;;;;;;;24.80;9.93;;;1.90;99.90;;;;;;5103832;28;20409;-61
2023/01/20 06:04:35;;;;;;;18.30;9.38;;;1.90;99.90;;;;;;5085717;28;20035;-62
2023/01/20 06:07:01;;;;;;;20.40;9.40;;;1.90;99.90;;;;;;5105642;28;20024;-61
2023/01/20 06:09:26;;;;;;;16.65;9.13;;;1.90;99.90;;;;;;5103358;28;20039;-61
2023/01/20 06:11:52;;;;;;;16.55;9.95;;;1.90;99.90;;;;;;5088725;28;20024;-62
2023/01/20 06:14:17;;;;;;;21.20;10.13;;;1.80;99.90;;;;;;5086743;28;20032;-61
2023/01/20 06:16:43;;;;;;;25.17;10.98;;;1.80;99.90;;;;;;5089876;28;20020;-61
2023/01/20 06:19:08;;;;;;;24.48;11.27;;;1.80;99.90;;;;;;5106928;28;20185;-61
2023/01/20 06:21:34;;;;;;;27.13;10.57;;;1.80;99.90;;;;;;5107777;28;20057;-62
2023/01/20 06:23:59;;;;;;;22.98;10.48;;;1.80;99.90;;;;;;5090885;28;20519;-61
2023/01/20 06:26:24;;;;;;;20.67;10.95;;;1.90;99.90;;;;;;5108501;28;20015;-61
2023/01/20 06:28:50;;;;;;;23.45;10.88;;;1.90;99.90;;;;;;5090149;28;20071;-61
2023/01/20 06:31:15;;;;;;;25.50;10.27;;;1.90;99.90;;;;;;5096965;28;20047;-61
2023/01/20 06:33:41;;;;;;;24.27;10.68;;;1.90;99.90;;;;;;5106966;28;20044;-60
2023/01/20 06:36:09;;;;;;;26.77;11.32;;;1.90;99.90;;;;;;5109590;28;20584;-61
2023/01/20 06:38:35;;;;;;;20.98;10.57;;;1.90;99.90;;;;;;5088486;28;20115;-61
2023/01/20 06:41:03;;;;;;;25.95;10.98;;;1.90;99.90;;;;;;5089253;28;20024;-61
2023/01/20 06:43:31;;;;;;;26.00;11.02;;;1.90;99.90;;;;;;5109162;28;20118;-61
2023/01/20 06:46:04;;;;;;;22.70;11.05;;;1.90;99.90;;;;;;5087499;28;20036;-61
2023/01/20 06:48:31;;;;;;;29.83;12.77;;;1.90;99.90;;;;;;5109017;28;20373;-61
2023/01/20 06:51:08;;;;;;;23.35;10.88;;;1.90;99.90;;;;;;5107480;28;20045;-61
2023/01/20 06:53:33;;;;;;;29.23;12.13;;;1.90;99.90;;;;;;5068902;28;20384;-61
2023/01/20 06:56:00;;;;;;;27.58;12.50;;;1.90;99.90;;;;;;5106901;28;20042;-61
2023/01/20 06:58:30;;;;;;;24.45;11.25;;;1.90;99.90;;;;;;5089545;28;20024;-61
2023/01/20 07:00:56;;;;;;;32.90;13.32;;;1.90;99.90;;;;;;5086334;28;20034;-61
2023/01/20 07:03:22;;;;;;;24.77;11.65;;;1.90;99.90;;;;;;5093684;28;20032;-61
2023/01/20 07:06:03;;;;;;;23.73;9.80;;;1.90;99.90;;;;;;5106012;28;20035;-61
2023/01/20 07:08:28;;;;;;;23.50;11.90;;;1.90;99.90;;;;;;5080955;28;20036;-61
2023/01/20 07:10:54;;;;;;;22.30;11.00;;;2.00;99.90;;;;;;5108334;28;20019;-61
2023/01/20 07:13:20;;;;;;;24.23;11.60;;;2.00;99.90;;;;;;5087779;28;20040;-62
2023/01/20 07:15:46;;;;;;;23.95;12.15;;;2.00;99.90;;;;;;5108419;28;20024;-61
2023/01/20 07:18:11;;;;;;;27.75;11.80;;;2.00;99.90;;;;;;5087473;28;20040;-61
2023/01/20 07:20:37;;;;;;;27.98;12.75;;;2.00;99.90;;;;;;5108279;28;20020;-62
2023/01/20 07:23:03;;;;;;;30.13;12.70;;;2.00;99.90;;;;;;5087412;28;20066;-61
2023/01/20 07:25:29;;;;;;;27.10;11.63;;;2.00;99.90;;;;;;5108440;28;20028;-61
2023/01/20 07:27:56;;;;;;;22.77;11.77;;;2.00;99.90;;;;;;5096591;28;20061;-62
2023/01/20 07:30:22;;;;;;;21.20;10.75;;;2.00;99.90;;;;;;5093499;28;20032;-61
2023/01/20 07:32:47;;;;;;;23.73;11.77;;;2.10;99.90;;;;;;5098535;28;20066;-63
2023/01/20 07:35:13;;;;;;;21.52;10.80;;;2.10;99.90;;;;;;5108451;28;20126;-61
2023/01/20 07:37:39;;;;;;;19.70;10.48;;;2.10;99.90;;;;;;5087113;28;20028;-61
2023/01/20 07:40:06;;;;;;;20.58;11.10;;;2.10;99.90;;;;;;5088476;28;20038;-60
2023/01/20 07:42:31;;;;;;;26.80;13.13;;;2.10;99.90;;;;;;5099955;28;20059;-60
2023/01/20 07:44:57;;;;;;;23.23;11.88;;;2.10;99.90;;;;;;5088752;28;20388;-60
2023/01/20 07:47:22;;;;;;;25.38;11.02;;;2.10;99.90;;;;;;5101018;28;20031;-61
2023/01/20 07:49:48;;;;;;;24.27;12.00;;;2.10;99.90;;;;;;5088695;28;20027;-60
2023/01/20 07:52:13;;;;;;;24.73;11.50;;;2.20;99.90;;;;;;5102260;28;20028;-61
2023/01/20 07:54:38;;;;;;;23.13;11.40;;;2.20;99.90;;;;;;5088592;28;20024;-61
2023/01/20 07:57:04;;;;;;;21.55;11.63;;;2.20;99.90;;;;;;5103626;28;20034;-60
2023/01/20 07:59:29;;;;;;;20.27;10.55;;;2.20;99.90;;;;;;5088476;28;20024;-61
2023/01/20 08:01:55;;;;;;;25.42;12.30;;;2.20;99.90;;;;;;5104708;28;20067;-61
2023/01/20 08:04:20;;;;;;;25.52;10.88;;;2.20;99.90;;;;;;5088652;28;20521;-61
2023/01/20 08:06:46;;;;;;;24.17;11.77;;;2.20;99.90;;;;;;5062234;28;20044;-61
2023/01/20 08:09:13;;;;;;;24.52;11.43;;;2.20;99.90;;;;;;5068078;28;20067;-60
2023/01/20 08:11:39;;;;;;;26.88;11.98;;;2.20;99.90;;;;;;5107469;28;20035;-61
2023/01/20 08:14:05;;;;;;;26.50;12.38;;;2.20;99.90;;;;;;5086903;28;20039;-61
2023/01/20 08:16:31;;;;;;;21.58;11.02;;;2.30;99.90;;;;;;5108165;28;20027;-60
2023/01/20 08:18:57;;;;;;;28.45;12.88;;;2.30;99.90;;;;;;5086796;28;20507;-61
2023/01/20 08:21:25;;;;;;;30.25;14.57;;;2.20;99.90;;;;;;5108788;28;20092;-62
2023/01/20 08:23:50;;;;;;;25.02;12.68;;;2.20;99.90;;;;;;5090160;28;20447;-60
2023/01/20 08:26:16;;;;;;;25.70;12.43;;;2.20;99.90;;;;;;5111719;28;20032;-60
2023/01/20 08:28:42;;;;;;;30.90;13.57;;;2.20;99.90;;;;;;5090483;28;20055;-60
2023/01/20 08:31:10;;;;;;;26.13;13.32;;;2.30;99.90;;;;;;5099835;28;20052;-60
2023/01/20 08:33:36;;;;;;;24.80;13.18;;;2.30;99.90;;;;;;5094773;28;20036;-61
2023/01/20 08:36:14;;;;;;;26.63;12.80;;;2.20;99.90;;;;;;5109951;28;20547;-61
2023/01/20 08:38:40;;;;;;;26.23;11.88;;;2.30;99.90;;;;;;5089857;28;20479;-59
2023/01/20 08:41:11;;;;;;;30.52;14.02;;;2.30;99.90;;;;;;5111313;28;20031;-61
2023/01/20 08:43:37;;;;;;;26.45;12.90;;;2.30;99.90;;;;;;5085002;28;20052;-60
2023/01/20 08:46:06;;;;;;;25.98;12.02;;;2.30;99.90;;;;;;5110981;28;20112;-61
2023/01/20 08:48:32;;;;;;;22.58;12.45;;;2.30;99.90;;;;;;5089710;28;20046;-61
2023/01/20 08:50:58;;;;;;;24.77;12.15;;;2.30;99.90;;;;;;5111334;28;20032;-60
2023/01/20 08:53:24;;;;;;;26.58;12.90;;;2.30;99.90;;;;;;5090162;28;20142;-66
2023/01/20 08:55:57;;;;;;;28.90;14.50;;;2.40;99.90;;;;;;5110974;28;20023;-66
2023/01/20 08:58:23;;;;;;;26.90;13.75;;;2.40;99.90;;;;;;5089828;28;20032;-66
2023/01/20 09:00:49;;;;;;;24.10;13.27;;;2.50;99.90;;;;;;5110939;28;20136;-66
2023/01/20 09:03:14;;;;;;;30.83;16.05;;;2.50;99.90;;;;;;5089841;28;20062;-66
2023/01/20 09:05:39;;;;;;;44.58;23.67;;;2.50;99.90;;;;;;5092458;28;20043;-66
2023/01/20 09:08:05;;;;;;;38.85;19.42;;;2.50;99.90;;;;;;5097679;28;20035;-66
2023/01/20 09:10:34;;;;;;;34.92;17.52;;;2.60;99.90;;;;;;5110538;28;20032;-66
2023/01/20 09:12:59;;;;;;;30.55;15.80;;;2.60;99.90;;;;;;5089502;28;20028;-66
2023/01/20 09:15:25;;;;;;;29.67;14.35;;;2.60;99.90;;;;;;5110576;28;20030;-68
2023/01/20 09:17:51;;;;;;;28.23;15.20;;;2.70;99.90;;;;;;5089712;28;20031;-68
2023/01/20 09:20:16;;;;;;;31.95;15.88;;;2.70;99.90;;;;;;5109132;28;20031;-67
2023/01/20 09:22:42;;;;;;;31.27;17.65;;;2.70;99.90;;;;;;5081678;28;20044;-67
2023/01/20 09:25:09;;;;;;;32.80;16.10;;;2.70;99.90;;;;;;5090081;28;20099;-68
2023/01/20 09:27:34;;;;;;;31.40;14.98;;;2.70;99.90;;;;;;5108688;28;20055;-68
2023/01/20 09:30:00;;;;;;;35.97;17.33;;;2.70;99.90;;;;;;5108994;28;20051;-68
2023/01/20 09:32:25;;;;;;;39.28;21.85;;;2.70;99.90;;;;;;5088081;28;20515;-68
2023/01/20 09:34:51;;;;;;;40.85;24.17;;;2.70;99.90;;;;;;5090131;28;20020;-67
2023/01/20 09:45:49;;;;;;;28.70;14.80;;;2.80;99.90;;;;;;5070215;28;20051;-68
2023/01/20 09:54:32;;;;;;;25.88;14.75;;;2.80;99.90;;;;;;5070285;28;20986;-68
2023/01/20 09:56:59;;;;;;;28.27;14.63;;;2.80;99.90;;;;;;5069854;28;20249;-68
2023/01/20 09:59:39;;;;;;;29.50;14.27;;;2.80;99.90;;;;;;5090220;28;20024;-68
2023/01/20 10:02:16;;;;;;;22.85;13.15;;;2.80;99.90;;;;;;5070629;28;20070;-68
2023/01/20 10:04:47;;;;;;;27.45;13.85;;;2.90;99.90;;;;;;5085575;28;20493;-68
2023/01/20 10:07:15;;;;;;;29.88;13.73;;;2.90;99.90;;;;;;5105004;28;20024;-68
2023/01/20 10:09:48;;;;;;;29.90;15.63;;;2.90;99.90;;;;;;5090043;28;20032;-68
2023/01/20 10:12:20;;;;;;;29.00;15.10;;;2.90;99.90;;;;;;5071775;28;20026;-68
2023/01/20 10:15:06;;;;;;;35.30;15.80;;;3.00;99.90;;;;;;5090006;28;20023;-68
2023/01/20 10:18:10;;;;;;;24.83;12.65;;;3.00;99.90;;;;;;5074149;28;20024;-68
2023/01/20 10:20:45;;;;;;;30.83;15.10;;;3.00;99.90;;;;;;5104185;28;20040;-68
2023/01/20 10:23:23;;;;;;;29.10;15.52;;;3.00;99.90;;;;;;5078189;28;20028;-68
2023/01/20 10:26:09;;;;;;;36.80;16.50;;;3.10;99.90;;;;;;5109705;28;20024;-68
2023/01/20 10:28:43;;;;;;;33.13;15.73;;;3.10;99.90;;;;;;5082765;28;20054;-68
2023/01/20 10:31:13;;;;;;;31.02;15.48;;;3.10;99.90;;;;;;5091899;28;20557;-68
2023/01/20 10:33:43;;;;;;;33.80;15.95;;;3.10;99.90;;;;;;5087889;28;20031;-68
2023/01/20 10:36:30;;;;;;;44.72;20.45;;;3.10;99.90;;;;;;5109574;28;20067;-68
2023/01/20 10:39:03;;;;;;;;;;;3.10;99.90;;;;;;5086140;28;20024;-68
2023/01/20 10:41:39;;;;;;;39.28;17.63;;;3.10;99.90;;;;;;5109600;28;19912;-68
2023/01/20 10:44:11;;;;;;;104.18;37.60;;;3.10;99.90;;;;;;5086585;28;20404;-68
2023/01/20 10:47:12;;;;;;;48.80;24.17;;;3.10;99.90;;;;;;5089787;28;20694;-69
2023/01/20 10:49:55;;;;;;;45.40;22.13;;;3.10;99.90;;;;;;5069210;28;20130;-68
2023/01/20 10:52:45;;;;;;;41.95;20.48;;;3.10;99.90;;;;;;5076827;28;20107;-68
2023/01/20 10:55:35;;;;;;;41.10;19.20;;;3.10;99.90;;;;;;5109789;28;20096;-68
2023/01/20 10:58:24;;;;;;;35.88;17.88;;;3.10;99.90;;;;;;5077629;28;20028;-68
2023/01/20 11:00:50;;;;;;;34.65;17.70;;;3.20;99.90;;;;;;5089294;28;20028;-68
2023/01/20 11:03:21;;;;;;;39.13;17.95;;;3.20;99.90;;;;;;5094767;28;20508;-68
2023/01/20 11:05:48;;;;;;;35.22;17.63;;;3.20;99.90;;;;;;5090029;28;20059;-68
2023/01/20 11:08:21;;;;;;;26.98;15.82;;;3.20;99.90;;;;;;5094877;28;20032;-68
2023/01/20 11:10:51;;;;;;;29.23;15.45;;;3.20;99.90;;;;;;5109365;28;20028;-68
2023/01/20 11:13:17;;;;;;;33.42;16.80;;;3.10;99.90;;;;;;5079816;28;20028;-68
2023/01/20 11:15:46;;;;;;;34.53;18.10;;;3.20;99.90;;;;;;5108674;28;20020;-69
2023/01/20 11:18:14;;;;;;;33.25;17.02;;;3.20;99.90;;;;;;5087329;28;20036;-68
2023/01/20 11:20:46;;;;;;;30.55;17.08;;;3.20;99.90;;;;;;5108714;28;20067;-68
2023/01/20 11:23:48;;;;;;;32.75;17.20;;;3.20;99.90;;;;;;5087819;28;20484;-67
2023/01/20 11:26:42;;;;;;;28.10;13.85;;;3.20;99.90;;;;;;5061929;28;20119;-68
2023/01/20 11:29:08;;;;;;;35.70;17.02;;;3.20;99.90;;;;;;5053710;28;20040;-68
2023/01/20 11:31:38;;;;;;;26.00;15.57;;;3.10;99.90;;;;;;5107734;28;20039;-68
2023/01/20 11:34:24;;;;;;;37.05;16.85;;;3.20;99.90;;;;;;5087271;28;20081;-66
2023/01/20 11:37:10;;;;;;;31.02;17.77;;;3.10;99.90;;;;;;5106406;28;20076;-68
2023/01/20 11:39:48;;;;;;;30.10;16.48;;;3.20;99.90;;;;;;5089080;28;20043;-68
2023/01/20 11:42:16;;;;;;;36.05;19.10;;;3.20;99.90;;;;;;5103036;28;20016;-69
2023/01/20 11:44:46;;;;;;;35.92;19.52;;;3.10;99.90;;;;;;5089163;28;20020;-68
2023/01/20 11:47:23;;;;;;;33.55;18.23;;;3.00;99.90;;;;;;5086059;28;20036;-69
2023/01/20 11:50:18;;;;;;;31.83;17.13;;;3.00;99.90;;;;;;5085784;28;20051;-69
2023/01/20 11:52:46;;;;;;;39.42;18.48;;;2.90;99.90;;;;;;5070889;28;20493;-68
2023/01/20 11:55:11;;;;;;;34.78;18.25;;;2.70;99.90;;;;;;5109657;28;20476;-68
2023/01/20 11:58:01;;;;;;;41.00;19.83;;;2.70;99.90;;;;;;5090840;28;20027;-68
2023/01/20 12:00:36;;;;;;;41.42;20.20;;;2.60;99.90;;;;;;5083284;28;20043;-68
2023/01/20 12:03:11;;;;;;;37.15;18.42;;;2.60;99.90;;;;;;5075327;28;20024;-69
2023/01/20 12:05:51;;;;;;;34.77;17.87;;;2.70;99.90;;;;;;5095057;28;20032;-69
2023/01/20 12:08:32;;;;;;;31.52;16.90;;;2.70;99.90;;;;;;5077540;28;20032;-68
2023/01/20 12:11:03;;;;;;;30.20;15.27;;;2.90;99.90;;;;;;5072848;28;20484;-69
2023/01/20 12:14:18;;;;;;;36.67;17.27;;;2.90;99.90;;;;;;5087642;28;20031;-69
2023/01/20 12:16:23;;;;;;;27.98;14.02;;;3.00;99.90;;;;;;5072226;28;20369;-68
2023/01/20 12:18:54;;;;;;;33.60;16.15;;;3.00;99.90;;;;;;5110438;28;20076;-69
2023/01/20 12:21:28;;;;;;;28.77;15.05;;;3.00;99.90;;;;;;5072635;28;20037;-69
2023/01/20 12:24:10;;;;;;;31.70;15.55;;;3.00;99.90;;;;;;5082350;28;20036;-69
2023/01/20 12:26:36;;;;;;;36.08;15.48;;;2.90;99.90;;;;;;5072460;28;20481;-69
2023/01/20 12:29:12;;;;;;;40.25;18.75;;;2.80;99.90;;;;;;5096291;28;20039;-68
2023/01/20 12:31:38;;;;;;;37.05;17.58;;;2.60;99.90;;;;;;5072166;28;20056;-68
2023/01/20 12:34:10;;;;;;;34.90;18.48;;;2.50;99.90;;;;;;5096451;28;20028;-68
2023/01/20 12:36:59;;;;;;;33.58;17.25;;;2.50;99.90;;;;;;5072277;28;20029;-68
2023/01/20 12:39:38;;;;;;;37.33;17.35;;;2.40;99.90;;;;;;5086278;28;20032;-69
2023/01/20 12:42:09;;;;;;;32.67;17.38;;;2.30;99.90;;;;;;5092309;28;20028;-68
2023/01/20 12:44:57;;;;;;;36.45;17.33;;;2.30;99.90;;;;;;5092461;28;20038;-68
2023/01/20 12:48:01;;;;;;;29.10;14.43;;;2.30;99.90;;;;;;5072208;28;20033;-68
2023/01/20 12:50:31;;;;;;;30.90;15.95;;;2.40;99.90;;;;;;5072026;28;20036;-68
2023/01/20 12:53:11;;;;;;;31.85;15.82;;;2.40;99.90;;;;;;5073636;28;20100;-68
2023/01/20 12:56:04;;;;;;;37.28;17.75;;;2.30;99.90;;;;;;5092048;28;20028;-68
2023/01/20 12:58:44;;;;;;;31.75;16.02;;;2.30;99.90;;;;;;5085713;28;20024;-68
2023/01/20 13:01:39;;;;;;;27.40;14.05;;;2.40;99.90;;;;;;5071715;28;20063;-68
2023/01/20 13:04:33;;;;;;;32.08;15.27;;;2.60;99.90;;;;;;5094540;28;20040;-67
2023/01/20 13:07:13;;;;;;;36.75;16.92;;;2.60;99.90;;;;;;5064360;28;20033;-67
2023/01/20 13:09:58;;;;;;;31.23;14.43;;;2.70;99.90;;;;;;5088048;28;20056;-68
2023/01/20 13:12:41;;;;;;;30.43;13.87;;;2.70;99.90;;;;;;5094679;28;20069;-68